Time;durP1;ratioP1;P1;durP2;ratioP2;P2;SDS_P1;SDS_P2;PMS_P1;PMS_P2;Temp;Humidity;BMP_temperature;BMP_pressure;BME280_temperature;BME280_humidity;BME280_pressure;Samples;Min_cycle;Max_cycle;Signal;HPM_P1;HPM_P2
2024/01/25 00:00:59;;;;;;;45.17;13.05;;;;;;;;;;5104868;28;20020;-56
2024/01/25 00:03:26;;;;;;;53.40;14.52;;;;;;;;;;5104552;28;20212;-55
2024/01/25 00:05:53;;;;;;;48.75;14.23;;;;;;;;;;5104961;28;20039;-57
2024/01/25 00:08:20;;;;;;;69.20;22.35;;;;;;;;;;5105266;28;20030;-56
2024/01/25 00:10:47;;;;;;;78.60;24.50;;;;;;;;;;5105135;28;20064;-56
2024/01/25 00:13:14;;;;;;;70.75;23.33;;;;;;;;;;5105190;28;20034;-56
2024/01/25 00:15:40;;;;;;;61.75;19.00;;;;;;;;;;5104946;28;20083;-55
2024/01/25 00:18:07;;;;;;;62.33;18.30;;;;;;;;;;5104985;28;20020;-56
2024/01/25 00:20:33;;;;;;;56.35;17.30;;;;;;;;;;5104832;28;20020;-57
2024/01/25 00:23:00;;;;;;;53.92;20.38;;;;;;;;;;5104909;28;20062;-56
2024/01/25 00:25:27;;;;;;;64.20;22.15;;;;;;;;;;5104492;28;20016;-57
2024/01/25 00:27:54;;;;;;;51.30;21.08;;;;;;;;;;5104951;28;20055;-55
2024/01/25 00:30:20;;;;;;;53.88;22.25;;;;;;;;;;5104675;28;20100;-56
2024/01/25 00:32:49;;;;;;;52.05;20.65;;;;;;;;;;5104348;28;20185;-54
2024/01/25 00:35:16;;;;;;;46.67;18.30;;;;;;;;;;5104529;28;20320;-56
2024/01/25 00:37:43;;;;;;;46.15;17.92;;;;;;;;;;5104919;28;20028;-55
2024/01/25 00:40:10;;;;;;;45.58;15.85;;;;;;;;;;5104316;28;20028;-56
2024/01/25 00:42:41;;;;;;;45.60;15.32;;;;;;;;;;5103988;28;20047;-56
2024/01/25 00:45:08;;;;;;;38.17;14.13;;;;;;;;;;5104602;28;20199;-56
2024/01/25 00:47:35;;;;;;;31.90;12.27;;;;;;;;;;5104644;28;20051;-55
2024/01/25 00:50:02;;;;;;;29.38;10.60;;;;;;;;;;5104296;28;20402;-55
2024/01/25 00:52:28;;;;;;;27.63;10.48;;;;;;;;;;5104296;28;20024;-57
2024/01/25 00:54:55;;;;;;;27.60;8.68;;;;;;;;;;5104123;28;20024;-55
2024/01/25 00:57:22;;;;;;;51.72;10.55;;;;;;;;;;5104214;28;20058;-55
2024/01/25 00:59:49;;;;;;;53.15;10.82;;;;;;;;;;5104413;28;20043;-54
2024/01/25 01:02:15;;;;;;;47.70;9.23;;;;;;;;;;5104381;28;20028;-55
2024/01/25 01:04:42;;;;;;;47.95;9.30;;;;;;;;;;5104484;28;20325;-57
2024/01/25 01:07:09;;;;;;;27.00;7.72;;;;;;;;;;5104362;28;20047;-57
2024/01/25 01:09:36;;;;;;;21.48;6.78;;;;;;;;;;5104386;28;20256;-55
2024/01/25 01:12:03;;;;;;;24.30;7.50;;;;;;;;;;5104712;28;20055;-56
2024/01/25 01:14:29;;;;;;;24.05;7.25;;;;;;;;;;5104388;28;20020;-55
2024/01/25 01:16:56;;;;;;;35.03;8.05;;;;;;;;;;5103961;28;20024;-56
2024/01/25 01:19:22;;;;;;;29.23;7.93;;;;;;;;;;5104028;28;20016;-57
2024/01/25 01:21:49;;;;;;;30.67;8.05;;;;;;;;;;5104172;28;20016;-56
2024/01/25 01:24:15;;;;;;;25.90;7.80;;;;;;;;;;5104010;28;20043;-53
2024/01/25 01:26:42;;;;;;;17.77;6.80;;;;;;;;;;5103951;28;20024;-56
2024/01/25 01:29:08;;;;;;;24.60;7.30;;;;;;;;;;5104240;28;20012;-57
2024/01/25 01:31:35;;;;;;;41.90;8.45;;;;;;;;;;5102458;28;20092;-49
2024/01/25 01:34:02;;;;;;;27.98;6.35;;;;;;;;;;5098670;28;20334;-53
2024/01/25 01:36:28;;;;;;;24.33;7.82;;;;;;;;;;5100810;28;20019;-55
2024/01/25 01:38:55;;;;;;;31.42;8.13;;;;;;;;;;5104015;28;20086;-55
2024/01/25 01:41:22;;;;;;;31.17;8.68;;;;;;;;;;5103742;28;20020;-58
2024/01/25 01:43:53;;;;;;;29.25;9.23;;;;;;;;;;5103358;28;20048;-59
2024/01/25 01:46:39;;;;;;;20.83;7.70;;;;;;;;;;5103331;28;20020;-59
2024/01/25 01:49:08;;;;;;;27.95;7.93;;;;;;;;;;5103516;28;20024;-61
2024/01/25 01:51:35;;;;;;;27.73;7.70;;;;;;;;;;5103416;28;20016;-55
2024/01/25 01:54:03;;;;;;;71.53;10.95;;;;;;;;;;5106175;28;20028;-54
2024/01/25 01:56:29;;;;;;;25.58;8.02;;;;;;;;;;5107220;28;20024;-50
2024/01/25 01:59:00;;;;;;;16.58;7.32;;;;;;;;;;5107403;28;20059;-55
2024/01/25 02:01:27;;;;;;;35.03;7.90;;;;;;;;;;5106995;28;20050;-49
2024/01/25 02:03:54;;;;;;;70.25;10.27;;;;;;;;;;5106967;28;20031;-49
2024/01/25 02:06:21;;;;;;;21.58;6.90;;;;;;;;;;5097839;28;20024;-52
2024/01/25 02:08:49;;;;;;;39.55;7.70;;;;;;;;;;5093615;28;20027;-53
2024/01/25 02:11:16;;;;;;;15.52;6.75;;;;;;;;;;5086614;28;20020;-62
2024/01/25 02:13:42;;;;;;;16.90;6.22;;;;;;;;;;5086874;28;20032;-62
2024/01/25 02:16:09;;;;;;;64.70;9.63;;;;;;;;;;5086598;28;20394;-64
2024/01/25 02:18:36;;;;;;;20.25;6.57;;;;;;;;;;5093408;28;20343;-66
2024/01/25 02:21:03;;;;;;;14.15;6.63;;;;;;;;;;5099172;28;20159;-65
2024/01/25 02:23:29;;;;;;;14.13;6.53;;;;;;;;;;5086680;28;20087;-60
2024/01/25 02:25:56;;;;;;;13.57;6.70;;;;;;;;;;5088214;28;20023;-62
2024/01/25 02:28:22;;;;;;;10.85;6.75;;;;;;;;;;5097757;28;20029;-63
2024/01/25 02:30:49;;;;;;;13.65;7.03;;;;;;;;;;5086300;28;20209;-62
2024/01/25 02:33:15;;;;;;;8.63;6.53;;;;;;;;;;5086171;28;20020;-65
2024/01/25 02:35:42;;;;;;;9.80;7.03;;;;;;;;;;5089623;28;20041;-65
2024/01/25 02:38:09;;;;;;;24.85;7.88;;;;;;;;;;5100355;28;20046;-69
2024/01/25 02:40:35;;;;;;;14.18;7.13;;;;;;;;;;5089911;28;20047;-67
2024/01/25 02:43:02;;;;;;;12.23;7.30;;;;;;;;;;5098527;28;20040;-65
2024/01/25 02:45:29;;;;;;;13.35;7.03;;;;;;;;;;5102936;28;20028;-66
2024/01/25 02:47:55;;;;;;;10.80;6.97;;;;;;;;;;5106040;28;20275;-65
2024/01/25 02:50:22;;;;;;;11.32;7.15;;;;;;;;;;5103069;28;20086;-62
2024/01/25 02:52:48;;;;;;;10.90;7.00;;;;;;;;;;5102058;28;20026;-63
2024/01/25 02:55:19;;;;;;;10.10;7.18;;;;;;;;;;5099746;28;20064;-63
2024/01/25 02:57:45;;;;;;;9.40;6.85;;;;;;;;;;5099869;28;20077;-62
2024/01/25 03:00:12;;;;;;;9.10;7.00;;;;;;;;;;5089838;28;20016;-64
2024/01/25 03:02:39;;;;;;;12.80;6.93;;;;;;;;;;5085688;28;20039;-63
2024/01/25 03:05:06;;;;;;;10.02;7.35;;;;;;;;;;5098152;28;20035;-63
2024/01/25 03:07:33;;;;;;;10.60;7.25;;;;;;;;;;5105859;28;20031;-63
2024/01/25 03:09:59;;;;;;;9.02;7.38;;;;;;;;;;5101646;28;20028;-61
2024/01/25 03:12:26;;;;;;;8.35;7.00;;;;;;;;;;5105918;28;20085;-62
2024/01/25 03:14:52;;;;;;;9.68;7.03;;;;;;;;;;5105614;28;20039;-61
2024/01/25 03:17:19;;;;;;;10.77;7.70;;;;;;;;;;5105492;28;20027;-63
2024/01/25 03:19:47;;;;;;;11.45;7.60;;;;;;;;;;5105785;28;20023;-63
2024/01/25 03:22:14;;;;;;;15.63;8.27;;;;;;;;;;5105370;28;20127;-62
2024/01/25 03:24:40;;;;;;;11.98;8.50;;;;;;;;;;5105277;28;20024;-62
2024/01/25 03:27:13;;;;;;;11.23;8.48;;;;;;;;;;5105516;28;20023;-62
2024/01/25 03:29:43;;;;;;;13.40;8.20;;;;;;;;;;5105136;28;20311;-62
2024/01/25 03:32:10;;;;;;;11.95;8.07;;;;;;;;;;5105242;28;20032;-62
2024/01/25 03:34:36;;;;;;;12.40;8.82;;;;;;;;;;5105237;28;20026;-62
2024/01/25 03:37:03;;;;;;;12.93;8.82;;;;;;;;;;5102380;28;20035;-63
2024/01/25 03:39:30;;;;;;;14.13;9.57;;;;;;;;;;5104162;28;20016;-61
2024/01/25 03:41:56;;;;;;;19.27;9.82;;;;;;;;;;5103168;28;20083;-56
2024/01/25 03:44:23;;;;;;;18.60;10.23;;;;;;;;;;5105236;28;20048;-55
2024/01/25 03:46:50;;;;;;;15.25;9.57;;;;;;;;;;5104324;28;20020;-49
2024/01/25 03:49:17;;;;;;;13.40;9.43;;;;;;;;;;5105067;28;20020;-56
2024/01/25 03:51:43;;;;;;;12.48;9.80;;;;;;;;;;5105433;28;20011;-49
2024/01/25 03:54:10;;;;;;;13.68;10.45;;;;;;;;;;5105321;28;20038;-50
2024/01/25 03:56:36;;;;;;;13.20;9.95;;;;;;;;;;5105279;28;20030;-53
2024/01/25 03:59:03;;;;;;;13.73;9.10;;;;;;;;;;5105492;28;20032;-56
2024/01/25 04:01:30;;;;;;;14.52;10.60;;;;;;;;;;5104076;28;20052;-54
2024/01/25 04:03:57;;;;;;;13.35;10.15;;;;;;;;;;5104939;28;20173;-52
2024/01/25 04:06:23;;;;;;;14.70;10.88;;;;;;;;;;5105243;28;20023;-51
2024/01/25 04:08:50;;;;;;;14.55;10.20;;;;;;;;;;5105590;28;20066;-56
2024/01/25 04:11:16;;;;;;;16.13;10.40;;;;;;;;;;5105135;28;20020;-51
2024/01/25 04:13:43;;;;;;;16.80;10.82;;;;;;;;;;5105208;28;20019;-51
2024/01/25 04:16:10;;;;;;;15.13;10.48;;;;;;;;;;5104036;28;20086;-55
2024/01/25 04:18:36;;;;;;;16.55;11.27;;;;;;;;;;5105066;28;20161;-60
2024/01/25 04:21:03;;;;;;;14.43;11.05;;;;;;;;;;5104683;28;20290;-48
2024/01/25 04:23:29;;;;;;;17.52;10.82;;;;;;;;;;5104727;28;20026;-51
2024/01/25 04:25:56;;;;;;;16.30;10.85;;;;;;;;;;5104468;28;20065;-54
2024/01/25 04:28:23;;;;;;;14.85;11.00;;;;;;;;;;5104865;28;20292;-55
2024/01/25 04:30:49;;;;;;;16.88;11.38;;;;;;;;;;5105312;28;20027;-54
2024/01/25 04:33:16;;;;;;;15.48;11.05;;;;;;;;;;5105246;28;20020;-56
2024/01/25 04:35:45;;;;;;;14.88;11.18;;;;;;;;;;5104799;28;20024;-57
2024/01/25 04:38:11;;;;;;;17.45;11.95;;;;;;;;;;5104907;28;20024;-53
2024/01/25 04:40:38;;;;;;;15.77;10.90;;;;;;;;;;5104803;28;20195;-50
2024/01/25 04:43:05;;;;;;;18.35;11.57;;;;;;;;;;5104490;28;20185;-55
2024/01/25 04:45:31;;;;;;;13.98;10.40;;;;;;;;;;5104825;28;20035;-51
2024/01/25 04:48:00;;;;;;;17.15;11.82;;;;;;;;;;5104795;28;20054;-51
2024/01/25 04:50:26;;;;;;;18.80;12.23;;;;;;;;;;5104556;28;20076;-51
2024/01/25 04:52:53;;;;;;;17.05;11.52;;;;;;;;;;5104673;28;20055;-52
2024/01/25 04:55:20;;;;;;;14.77;12.15;;;;;;;;;;5104420;28;20062;-52
2024/01/25 04:57:47;;;;;;;18.52;12.23;;;;;;;;;;5104978;28;20043;-49
2024/01/25 05:00:14;;;;;;;16.02;12.02;;;;;;;;;;5104339;28;20016;-51
2024/01/25 05:02:41;;;;;;;17.17;12.40;;;;;;;;;;5104712;28;20040;-48
2024/01/25 05:05:07;;;;;;;18.38;12.43;;;;;;;;;;5104886;28;20203;-51
2024/01/25 05:07:34;;;;;;;21.88;12.55;;;;;;;;;;5102109;28;20031;-63
2024/01/25 05:10:01;;;;;;;25.40;12.65;;;;;;;;;;5101562;28;20016;-64
2024/01/25 05:12:27;;;;;;;17.80;11.77;;;;;;;;;;5103629;28;20012;-57
2024/01/25 05:14:54;;;;;;;22.05;12.40;;;;;;;;;;5101995;28;20043;-60
2024/01/25 05:17:21;;;;;;;20.48;12.18;;;;;;;;;;5098804;28;20035;-64
2024/01/25 05:19:47;;;;;;;29.00;12.60;;;;;;;;;;5103650;28;20027;-65
2024/01/25 05:22:14;;;;;;;19.13;12.45;;;;;;;;;;5103492;28;20387;-66
2024/01/25 05:24:40;;;;;;;20.05;12.30;;;;;;;;;;5103540;28;20058;-66
2024/01/25 05:27:07;;;;;;;16.05;11.25;;;;;;;;;;5104387;28;20016;-63
2024/01/25 05:29:33;;;;;;;18.70;12.60;;;;;;;;;;5107328;28;20312;-63
2024/01/25 05:32:00;;;;;;;17.48;11.57;;;;;;;;;;5107425;28;20024;-64
2024/01/25 05:34:27;;;;;;;18.42;12.48;;;;;;;;;;5107212;28;20071;-57
2024/01/25 05:36:54;;;;;;;18.55;11.90;;;;;;;;;;5107354;28;20110;-61
2024/01/25 05:39:21;;;;;;;15.40;11.93;;;;;;;;;;5107091;28;20189;-61
2024/01/25 05:41:47;;;;;;;20.80;11.60;;;;;;;;;;5103391;28;20027;-62
2024/01/25 05:44:14;;;;;;;16.08;11.15;;;;;;;;;;5093250;28;20068;-64
2024/01/25 05:46:41;;;;;;;16.73;11.85;;;;;;;;;;5105599;28;20031;-64
2024/01/25 05:49:07;;;;;;;18.65;11.77;;;;;;;;;;5105442;28;20020;-65
2024/01/25 05:51:34;;;;;;;15.05;11.45;;;;;;;;;;5107194;28;20083;-63
2024/01/25 05:54:02;;;;;;;16.33;12.05;;;;;;;;;;5107665;28;20039;-63
2024/01/25 05:56:28;;;;;;;17.75;11.85;;;;;;;;;;5107314;28;20027;-61
2024/01/25 05:58:55;;;;;;;16.35;10.82;;;;;;;;;;5107561;28;20036;-60
2024/01/25 06:01:22;;;;;;;15.05;11.25;;;;;;;;;;5107191;28;20082;-61
2024/01/25 06:03:48;;;;;;;18.00;11.43;;;;;;;;;;5107393;28;20024;-61
2024/01/25 06:06:15;;;;;;;15.43;11.40;;;;;;;;;;5106956;28;20043;-60
2024/01/25 06:08:41;;;;;;;14.60;11.40;;;;;;;;;;5107463;28;20238;-62
2024/01/25 06:11:09;;;;;;;14.48;11.38;;;;;;;;;;5107029;28;20041;-62
2024/01/25 06:13:36;;;;;;;13.93;10.82;;;;;;;;;;5107135;28;20050;-64
2024/01/25 06:16:02;;;;;;;15.65;11.65;;;;;;;;;;5106847;28;20031;-62
2024/01/25 06:18:29;;;;;;;15.32;11.27;;;;;;;;;;5106709;28;20092;-61
2024/01/25 06:20:55;;;;;;;14.02;11.05;;;;;;;;;;5106976;28;20038;-63
2024/01/25 06:23:22;;;;;;;15.38;11.30;;;;;;;;;;5106805;28;20077;-62
2024/01/25 06:25:48;;;;;;;14.45;10.95;;;;;;;;;;5106668;28;20079;-63
2024/01/25 06:28:15;;;;;;;13.50;10.30;;;;;;;;;;5106931;28;20027;-62
2024/01/25 06:30:41;;;;;;;15.55;11.07;;;;;;;;;;5106375;28;20020;-62
2024/01/25 06:33:08;;;;;;;14.35;10.73;;;;;;;;;;5106401;28;20027;-61
2024/01/25 06:35:35;;;;;;;12.75;10.35;;;;;;;;;;5106489;28;20019;-61
2024/01/25 06:38:01;;;;;;;17.60;11.07;;;;;;;;;;5106504;28;20020;-63
2024/01/25 06:40:28;;;;;;;12.15;10.35;;;;;;;;;;5105597;28;20254;-65
2024/01/25 06:42:54;;;;;;;14.88;11.25;;;;;;;;;;5106246;28;20040;-63
2024/01/25 06:45:21;;;;;;;13.18;10.70;;;;;;;;;;5106086;28;20028;-64
2024/01/25 06:47:48;;;;;;;15.73;11.00;;;;;;;;;;5106355;28;20020;-65
2024/01/25 06:50:14;;;;;;;13.55;10.70;;;;;;;;;;5106220;28;20079;-66
2024/01/25 06:52:41;;;;;;;14.25;10.60;;;;;;;;;;5106278;28;20027;-63
2024/01/25 06:55:07;;;;;;;13.38;10.50;;;;;;;;;;5106400;28;20219;-61
2024/01/25 06:57:34;;;;;;;12.60;9.98;;;;;;;;;;5106332;28;20034;-64
2024/01/25 07:00:01;;;;;;;13.63;10.35;;;;;;;;;;5105885;28;20319;-58
2024/01/25 07:02:27;;;;;;;14.32;10.65;;;;;;;;;;5105995;28;20077;-63
2024/01/25 07:04:54;;;;;;;12.00;9.85;;;;;;;;;;5105715;28;20250;-67
2024/01/25 07:07:21;;;;;;;12.20;9.95;;;;;;;;;;5105762;28;20016;-62
2024/01/25 07:09:48;;;;;;;12.77;9.70;;;;;;;;;;5106013;28;20042;-61
2024/01/25 07:12:14;;;;;;;12.73;9.55;;;;;;;;;;5105745;28;20022;-61
2024/01/25 07:14:41;;;;;;;14.05;9.48;;;;;;;;;;5105569;28;20024;-63
2024/01/25 07:17:07;;;;;;;13.35;10.18;;;;;;;;;;5105560;28;20016;-62
2024/01/25 07:19:34;;;;;;;13.82;9.45;;;;;;;;;;5105758;28;20024;-63
2024/01/25 07:22:00;;;;;;;11.57;9.15;;;;;;;;;;5105420;28;20024;-64
2024/01/25 07:24:27;;;;;;;13.38;9.90;;;;;;;;;;5105326;28;20035;-63
2024/01/25 07:26:54;;;;;;;12.68;9.48;;;;;;;;;;5105559;28;20012;-63
2024/01/25 07:29:20;;;;;;;12.15;9.35;;;;;;;;;;5105407;28;20075;-63
2024/01/25 07:31:47;;;;;;;11.77;8.80;;;;;;;;;;5105212;28;20012;-63
2024/01/25 07:34:13;;;;;;;11.50;9.45;;;;;;;;;;5105299;28;20375;-64
2024/01/25 07:36:40;;;;;;;11.15;8.75;;;;;;;;;;5105197;28;20088;-64
2024/01/25 07:39:08;;;;;;;10.48;8.63;;;;;;;;;;5105026;28;20031;-65
2024/01/25 07:41:34;;;;;;;10.88;8.45;;;;;;;;;;5105131;28;20015;-63
2024/01/25 07:44:01;;;;;;;10.32;8.43;;;;;;;;;;5104943;28;20114;-63
2024/01/25 07:46:27;;;;;;;11.45;8.00;;;;;;;;;;5104971;28;20019;-65
2024/01/25 07:48:54;;;;;;;11.18;8.50;;;;;;;;;;5105614;28;20028;-61
2024/01/25 07:51:21;;;;;;;12.90;9.00;;;;;;;;;;5104037;28;20012;-61
2024/01/25 07:53:47;;;;;;;10.45;8.77;;;;;;;;;;5105161;28;20091;-64
2024/01/25 07:56:14;;;;;;;12.95;8.38;;;;;;;;;;5104871;28;20026;-62
2024/01/25 07:58:41;;;;;;;11.32;8.95;;;;;;;;;;5105319;28;20051;-63
2024/01/25 08:01:07;;;;;;;12.13;8.88;;;;;;;;;;5104903;28;20024;-61
2024/01/25 08:03:34;;;;;;;11.25;8.85;;;;;;;;;;5105141;28;20035;-63
2024/01/25 08:06:02;;;;;;;10.48;8.82;;;;;;;;;;5104699;28;20016;-65
2024/01/25 08:08:29;;;;;;;10.75;8.70;;;;;;;;;;5104863;28;20028;-61
2024/01/25 08:10:55;;;;;;;11.25;8.35;;;;;;;;;;5104721;28;20020;-62
2024/01/25 08:13:22;;;;;;;13.02;9.05;;;;;;;;;;5104868;28;20027;-62
2024/01/25 08:15:50;;;;;;;13.60;9.90;;;;;;;;;;5104392;28;20020;-61
2024/01/25 08:18:18;;;;;;;13.25;9.15;;;;;;;;;;5104797;28;20173;-63
2024/01/25 08:20:45;;;;;;;14.15;9.65;;;;;;;;;;5104445;28;20020;-63
2024/01/25 08:23:13;;;;;;;10.80;9.00;;;;;;;;;;5104686;28;20076;-63
2024/01/25 08:25:39;;;;;;;11.57;9.13;;;;;;;;;;5104340;28;20081;-63
2024/01/25 08:28:06;;;;;;;13.57;9.48;;;;;;;;;;5104599;28;20035;-63
2024/01/25 08:30:33;;;;;;;13.18;9.38;;;;;;;;;;5104326;28;20020;-63
2024/01/25 08:32:59;;;;;;;13.38;9.73;;;;;;;;;;5104483;28;20035;-66
2024/01/25 08:35:26;;;;;;;14.38;8.98;;;;;;;;;;5104343;28;20020;-64
2024/01/25 08:37:52;;;;;;;13.05;9.40;;;;;;;;;;5104265;28;20101;-63
2024/01/25 08:40:19;;;;;;;12.23;9.48;;;;;;;;;;5104337;28;20019;-63
2024/01/25 08:42:46;;;;;;;13.52;9.88;;;;;;;;;;5104167;28;20070;-61
2024/01/25 08:45:13;;;;;;;13.30;9.68;;;;;;;;;;5103965;28;20024;-63
2024/01/25 08:47:40;;;;;;;12.65;9.05;;;;;;;;;;5104290;28;20020;-64
2024/01/25 08:50:10;;;;;;;12.27;9.18;;;;;;;;;;5104239;28;20020;-63
2024/01/25 08:52:37;;;;;;;13.50;8.82;;;;;;;;;;5104032;28;20242;-63
2024/01/25 08:55:07;;;;;;;13.60;8.48;;;;;;;;;;5104053;28;20283;-63
2024/01/25 08:57:34;;;;;;;9.43;7.97;;;;;;;;;;5104214;28;20315;-62
2024/01/25 09:00:00;;;;;;;12.65;8.90;;;;;;;;;;5103887;28;20028;-64
2024/01/25 09:02:27;;;;;;;9.13;7.95;;;;;;;;;;5105447;28;20267;-64
2024/01/25 09:04:54;;;;;;;9.63;8.20;;;;;;;;;;5108050;28;20016;-63
2024/01/25 09:07:20;;;;;;;12.35;8.43;;;;;;;;;;5108136;28;20089;-62
2024/01/25 09:09:47;;;;;;;11.30;8.35;;;;;;;;;;5108168;28;20026;-63
2024/01/25 09:12:14;;;;;;;11.15;7.75;;;;;;;;;;5108208;28;20028;-63
2024/01/25 09:14:40;;;;;;;10.30;8.05;;;;;;;;;;5107821;28;20050;-63
2024/01/25 09:17:08;;;;;;;9.85;7.93;;;;;;;;;;5107995;28;20028;-62
2024/01/25 09:19:35;;;;;;;10.57;7.78;;;;;;;;;;5107887;28;20319;-63
2024/01/25 09:22:04;;;;;;;8.50;7.45;;;;;;;;;;5107719;28;20200;-62
2024/01/25 09:24:31;;;;;;;10.30;7.38;;;;;;;;;;5107714;28;20031;-63
2024/01/25 09:26:59;;;;;;;12.05;7.85;;;;;;;;;;5107841;28;20235;-63
2024/01/25 09:29:25;;;;;;;11.18;7.18;;;;;;;;;;5107581;28;20062;-64
2024/01/25 09:31:52;;;;;;;12.82;7.75;;;;;;;;;;5107749;28;20117;-64
2024/01/25 09:34:19;;;;;;;9.57;6.97;;;;;;;;;;5107659;28;20020;-64
2024/01/25 09:36:46;;;;;;;11.55;6.95;;;;;;;;;;5107410;28;20024;-61
2024/01/25 09:39:14;;;;;;;10.10;7.30;;;;;;;;;;5107657;28;20016;-62
2024/01/25 09:41:41;;;;;;;11.43;7.32;;;;;;;;;;5107424;28;20239;-62
2024/01/25 09:44:12;;;;;;;11.68;6.97;;;;;;;;;;5107150;28;20058;-61
2024/01/25 09:46:39;;;;;;;9.23;6.72;;;;;;;;;;5107382;28;20050;-63
2024/01/25 09:49:06;;;;;;;8.48;6.35;;;;;;;;;;5107485;28;20024;-63
2024/01/25 09:51:37;;;;;;;11.05;6.80;;;;;;;;;;5107248;28;20016;-62
2024/01/25 09:54:07;;;;;;;10.32;6.43;;;;;;;;;;5107110;28;20070;-63
2024/01/25 09:56:34;;;;;;;11.23;6.75;;;;;;;;;;5107549;28;20204;-64
2024/01/25 09:59:01;;;;;;;7.18;6.15;;;;;;;;;;5107475;28;20031;-65
2024/01/25 10:01:28;;;;;;;8.73;6.20;;;;;;;;;;5107012;28;20049;-63
2024/01/25 10:03:58;;;;;;;10.45;6.43;;;;;;;;;;5107416;28;20051;-61
2024/01/25 10:06:24;;;;;;;9.02;6.35;;;;;;;;;;5107042;28;20170;-62
2024/01/25 10:08:52;;;;;;;10.13;6.70;;;;;;;;;;5107392;28;20048;-67
2024/01/25 10:11:19;;;;;;;9.70;6.20;;;;;;;;;;5106973;28;20051;-63
2024/01/25 10:13:46;;;;;;;9.35;6.38;;;;;;;;;;5105979;28;20065;-64
2024/01/25 10:16:16;;;;;;;11.75;6.90;;;;;;;;;;5106829;28;20031;-66
2024/01/25 10:18:43;;;;;;;12.40;7.38;;;;;;;;;;5107220;28;20024;-64
2024/01/25 10:21:11;;;;;;;11.38;7.15;;;;;;;;;;5106578;28;20065;-62
2024/01/25 10:23:38;;;;;;;12.57;8.02;;;;;;;;;;5107353;28;20031;-64
2024/01/25 10:26:04;;;;;;;11.90;7.93;;;;;;;;;;5106609;28;20075;-64
2024/01/25 10:28:32;;;;;;;13.32;7.95;;;;;;;;;;5106894;28;20242;-65
2024/01/25 10:31:01;;;;;;;13.82;7.72;;;;;;;;;;5106471;28;20020;-66
2024/01/25 10:33:28;;;;;;;12.50;7.80;;;;;;;;;;5106752;28;20044;-63
2024/01/25 10:35:55;;;;;;;15.18;7.88;;;;;;;;;;5106362;28;20020;-62
2024/01/25 10:38:22;;;;;;;13.60;7.72;;;;;;;;;;5106752;28;20062;-63
2024/01/25 10:40:49;;;;;;;13.15;7.97;;;;;;;;;;5106361;28;20246;-61
2024/01/25 10:43:16;;;;;;;15.27;8.18;;;;;;;;;;5106070;28;20311;-62
2024/01/25 10:45:42;;;;;;;11.23;7.70;;;;;;;;;;5106372;28;20250;-62
2024/01/25 10:48:09;;;;;;;12.20;7.50;;;;;;;;;;5106597;28;20032;-61
2024/01/25 10:50:35;;;;;;;11.80;7.40;;;;;;;;;;5106254;28;20031;-62
2024/01/25 10:53:03;;;;;;;14.32;7.50;;;;;;;;;;5106427;28;20020;-61
2024/01/25 10:55:29;;;;;;;14.93;7.53;;;;;;;;;;5106039;28;20388;-65
2024/01/25 10:57:56;;;;;;;12.13;7.30;;;;;;;;;;5106077;28;20039;-64
2024/01/25 11:00:22;;;;;;;11.90;7.93;;;;;;;;;;5106227;28;20075;-63
2024/01/25 11:02:51;;;;;;;14.63;8.45;;;;;;;;;;5106170;28;20019;-62
2024/01/25 11:05:21;;;;;;;20.63;8.85;;;;;;;;;;5105706;28;20024;-64
2024/01/25 11:07:48;;;;;;;21.05;8.52;;;;;;;;;;5105996;28;20027;-59
2024/01/25 11:10:25;;;;;;;18.00;8.77;;;;;;;;;;5105773;28;20016;-62
2024/01/25 11:12:55;;;;;;;15.60;8.98;;;;;;;;;;5106017;28;20036;-62
2024/01/25 11:15:30;;;;;;;18.45;8.60;;;;;;;;;;5106022;28;20241;-63
2024/01/25 11:17:57;;;;;;;14.35;8.77;;;;;;;;;;5105738;28;20129;-62
2024/01/25 11:20:25;;;;;;;17.38;9.10;;;;;;;;;;5105847;28;20048;-62
2024/01/25 11:23:02;;;;;;;17.45;8.50;;;;;;;;;;5105724;28;20073;-60
2024/01/25 11:25:29;;;;;;;13.68;8.50;;;;;;;;;;5105218;28;20068;-61
2024/01/25 11:27:56;;;;;;;14.63;8.77;;;;;;;;;;5105638;28;20323;-61
2024/01/25 11:30:23;;;;;;;15.43;8.60;;;;;;;;;;5105271;28;20016;-62
2024/01/25 11:32:49;;;;;;;16.52;9.50;;;;;;;;;;5105241;28;20047;-60
2024/01/25 11:35:20;;;;;;;22.73;9.48;;;;;;;;;;5105395;28;20319;-62
2024/01/25 11:37:47;;;;;;;19.00;9.20;;;;;;;;;;5105301;28;20035;-64
2024/01/25 11:40:15;;;;;;;21.27;9.30;;;;;;;;;;5105407;28;20023;-62
2024/01/25 11:42:45;;;;;;;17.70;9.52;;;;;;;;;;5105120;28;20051;-60
2024/01/25 11:45:12;;;;;;;14.32;8.88;;;;;;;;;;5104949;28;20026;-62
2024/01/25 11:47:39;;;;;;;29.20;10.45;;;;;;;;;;5105310;28;20324;-61
2024/01/25 11:50:09;;;;;;;35.13;11.15;;;;;;;;;;5105019;28;20020;-63
2024/01/25 11:52:35;;;;;;;25.27;11.13;;;;;;;;;;5105061;28;20016;-63
2024/01/25 11:55:03;;;;;;;24.67;11.43;;;;;;;;;;5104946;28;20038;-63
2024/01/25 11:57:33;;;;;;;22.20;10.57;;;;;;;;;;5104967;28;20023;-63
2024/01/25 12:00:00;;;;;;;18.27;9.05;;;;;;;;;;5104750;28;20201;-61
2024/01/25 12:02:27;;;;;;;23.75;10.50;;;;;;;;;;5105033;28;20083;-63
2024/01/25 12:04:55;;;;;;;27.25;12.52;;;;;;;;;;5104582;28;20055;-63
2024/01/25 12:07:22;;;;;;;22.98;10.07;;;;;;;;;;5104697;28;20044;-62
2024/01/25 12:10:03;;;;;;;25.80;10.73;;;;;;;;;;5104844;28;20027;-59
2024/01/25 12:12:30;;;;;;;23.05;9.82;;;;;;;;;;5102234;28;20027;-62
2024/01/25 12:15:00;;;;;;;20.98;8.68;;;;;;;;;;5095528;28;20024;-62
2024/01/25 12:17:28;;;;;;;19.17;7.80;;;;;;;;;;5088495;28;20024;-61
2024/01/25 12:19:58;;;;;;;17.35;7.53;;;;;;;;;;5084030;28;20021;-60
2024/01/25 12:22:28;;;;;;;12.82;7.40;;;;;;;;;;5084480;28;20095;-62
2024/01/25 12:24:55;;;;;;;14.05;6.93;;;;;;;;;;5102228;28;20081;-61
2024/01/25 12:27:25;;;;;;;18.58;7.00;;;;;;;;;;5104415;28;20024;-60
2024/01/25 12:29:56;;;;;;;13.93;6.63;;;;;;;;;;5104270;28;20038;-61
2024/01/25 12:32:22;;;;;;;14.35;6.63;;;;;;;;;;5087778;28;20020;-62
2024/01/25 12:34:56;;;;;;;16.20;6.70;;;;;;;;;;5083790;28;20024;-62
2024/01/25 12:37:22;;;;;;;12.45;5.90;;;;;;;;;;5083630;28;20029;-61
2024/01/25 12:39:49;;;;;;;12.57;6.35;;;;;;;;;;5083963;28;20016;-61
2024/01/25 12:42:16;;;;;;;12.77;5.63;;;;;;;;;;5083847;28;20024;-62
2024/01/25 12:44:43;;;;;;;12.32;6.13;;;;;;;;;;5084114;28;20020;-61
2024/01/25 12:47:09;;;;;;;10.65;5.35;;;;;;;;;;5084162;28;20033;-61
2024/01/25 12:49:36;;;;;;;8.90;5.32;;;;;;;;;;5100583;28;20073;-62
2024/01/25 12:52:03;;;;;;;9.57;5.35;;;;;;;;;;5103993;28;20239;-62
2024/01/25 12:54:29;;;;;;;9.75;4.78;;;;;;;;;;5104345;28;20064;-62
2024/01/25 12:56:56;;;;;;;15.23;5.50;;;;;;;;;;5103843;28;20046;-62
2024/01/25 12:59:22;;;;;;;10.85;4.97;;;;;;;;;;5104117;28;20024;-63
2024/01/25 13:01:49;;;;;;;9.02;4.25;;;;;;;;;;5103994;28;20054;-62
2024/01/25 13:04:15;;;;;;;12.68;5.05;;;;;;;;;;5103806;28;20027;-63
2024/01/25 13:06:42;;;;;;;12.90;4.82;;;;;;;;;;5103943;28;20026;-62
2024/01/25 13:09:09;;;;;;;9.43;4.35;;;;;;;;;;5104106;28;20016;-62
2024/01/25 13:11:35;;;;;;;9.07;4.65;;;;;;;;;;5103821;28;20020;-60
2024/01/25 13:14:02;;;;;;;11.57;4.43;;;;;;;;;;5104360;28;20082;-62
2024/01/25 13:16:28;;;;;;;12.02;4.38;;;;;;;;;;5103897;28;20081;-62
2024/01/25 13:18:55;;;;;;;9.40;4.13;;;;;;;;;;5104225;28;20028;-62
2024/01/25 13:21:21;;;;;;;11.73;4.38;;;;;;;;;;5103885;28;20027;-64
2024/01/25 13:23:48;;;;;;;10.35;4.53;;;;;;;;;;5104153;28;20024;-62
2024/01/25 13:26:15;;;;;;;9.18;4.63;;;;;;;;;;5103943;28;20328;-61
2024/01/25 13:28:41;;;;;;;9.50;4.30;;;;;;;;;;5104208;28;20083;-62
2024/01/25 13:31:08;;;;;;;7.10;4.07;;;;;;;;;;5103784;28;20084;-65
2024/01/25 13:33:34;;;;;;;11.43;3.90;;;;;;;;;;5103766;28;20259;-60
2024/01/25 13:36:01;;;;;;;7.68;3.78;;;;;;;;;;5103642;28;20024;-61
2024/01/25 13:38:27;;;;;;;9.02;4.10;;;;;;;;;;5103913;28;20063;-61
2024/01/25 13:40:55;;;;;;;9.70;4.55;;;;;;;;;;5099597;28;20043;-63
2024/01/25 13:43:22;;;;;;;6.90;3.95;;;;;;;;;;5094511;28;20055;-63
2024/01/25 13:45:48;;;;;;;7.85;3.92;;;;;;;;;;5103833;28;20043;-62
2024/01/25 13:48:15;;;;;;;6.93;3.90;;;;;;;;;;5104913;28;20028;-62
2024/01/25 13:50:41;;;;;;;8.85;4.40;;;;;;;;;;5107552;28;20020;-62
2024/01/25 13:53:08;;;;;;;8.10;3.95;;;;;;;;;;5107609;28;20028;-63
2024/01/25 13:55:35;;;;;;;10.73;4.68;;;;;;;;;;5107354;28;20070;-64
2024/01/25 13:58:01;;;;;;;16.30;4.72;;;;;;;;;;5107304;28;20028;-63
2024/01/25 14:00:28;;;;;;;10.02;4.25;;;;;;;;;;5107034;28;20342;-63
2024/01/25 14:02:55;;;;;;;10.13;4.65;;;;;;;;;;5107316;28;20263;-60
2024/01/25 14:05:21;;;;;;;7.28;3.97;;;;;;;;;;5106875;28;20020;-62
2024/01/25 14:07:48;;;;;;;11.80;4.32;;;;;;;;;;5107306;28;20028;-61
2024/01/25 14:10:15;;;;;;;13.27;4.10;;;;;;;;;;5106891;28;20024;-61
2024/01/25 14:12:42;;;;;;;6.95;3.90;;;;;;;;;;5107041;28;20035;-63
2024/01/25 14:15:08;;;;;;;7.05;4.10;;;;;;;;;;5099949;28;20020;-62
2024/01/25 14:17:36;;;;;;;9.88;4.35;;;;;;;;;;5094874;28;20070;-62
2024/01/25 14:20:04;;;;;;;6.47;4.50;;;;;;;;;;5087102;28;20128;-60
2024/01/25 14:22:31;;;;;;;6.15;3.88;;;;;;;;;;5086567;28;20458;-62
2024/01/25 14:24:58;;;;;;;8.05;4.65;;;;;;;;;;5086549;28;20130;-62
2024/01/25 14:27:24;;;;;;;8.82;4.15;;;;;;;;;;5086435;28;20033;-61